1 Impact Wrenches Import to India

Connect2India provides real time data for 1 Impact Wrenches import, historical 1 Impact Wrenches import analysis, current demand in overseas countries and import price of 1 Impact Wrenches.

1 Impact Wrenches

1 Impact Wrenches import data

Date HS Code Product Description Origin Port Destination Port Quantity Value (INR in Million) Unit Per Unit (INR)
2016-01-28 84672900 7472836049 3940638 HANDLE CAP SCREW, 1" DRIVE, IMPACT WRENCH MDL#3942(OILWELL DRILLING RIG SPARE) UNITED STATES Bombay Air Cargo 12 0.0041 PCS 339.0
2016-01-28 84678990 AT650 1/2" COMPOSITE IMPACT WRENCH (POWER TOOLS) JAPAN Delhi Air Cargo 800 2.8662 PCS 3582.0
2016-01-29 82041120 HAND OPERATED WRENCHES- RE-5268 1/2" AIR IMPACT WRENCH (2 NOS) HONG KONG Nhava Sheva Sea 5 0.0034 KGS 674.0
2016-01-30 82042000 071413 081 IMPACT SOCKET WRENCH 1/2 INCH - SKTWRNCHIMP-1/2IN-SHORT-WS18 GERMANY Banglore Air Cargo 1 1.0E-4 PCS 128.0
2016-02-01 84671900 1" IMPACT WRENCH (PNEUMATIC AIR TOOLS FOR INDUSTRIAL USE) TAIWAN Chennai Air Cargo 10 0.1683 PCS 16830.0
2016-02-01 84671900 1/2" IMPACT WRENCH (PNEUMATIC AIR TOOLS FOR INDUSTRIAL USE) TAIWAN Chennai Air Cargo 50 0.1898 PCS 3795.0
2016-02-01 82079090 CWM-500R IMPACT WRENCH METAL 1/2"SQ DR RING RT GERMANY Bombay Air Cargo 2 0.014 NOS 6998.0
2016-02-02 84671900 SP-1140EX 1/2 IMPACT WRENCH (PNEUMATIC TOOLS) JAPAN Chennai Sea 100 0.4436 PCS 4436.0
2016-02-02 84671900 SP-1193GE-6 1 IMPACT WRENCH PINLESS (PNEUMATIC TOOLS) JAPAN Chennai Sea 3 0.0457 PCS 15231.0
2016-02-02 84671900 SP-5000GE 1 IMPACT WRENCH PINLESS (PNEUMATIC TOOLS) JAPAN Chennai Sea 6 0.1369 PCS 22808.0
2016-02-02 84671900 SP-7140* 1/2 IMPACT WRENCH (500PCS) (PNEUMATIC TOOLS) JAPAN Chennai Sea 10 0.045 PCS 4495.0
2016-02-02 84678990 1/2" COMPOSITE TWIN HAMMER HEAVY DUTY AIR IMPACT WRENCH - TI-5407 (AIR TOOLS ) TAIWAN Delhi Air Cargo 10 0.0557 PCS 5569.0
2016-02-03 84671190 CWC-250QC IMPACT WRENCH COMP 1/4" QC-WRENCHES OTHER THAN NUT RUNNER TAIWAN Banglore Air Cargo 2 0.0143 UNT 7140.0
2016-02-03 84672900 4933448100 M18CHIWF12-502 18V IMPACT WRENCH 1/2 FUEL (BRAND:MILWAUKEE)- TOOL CHINA Nhava Sheva Sea 2 0.0459 PCS 22956.0
2016-02-04 84671900 80091291 1 TITANIUM IMPACT WRENCH (PNEUMATIC TOOL) UNITED STATES Delhi Air Cargo 1 0.0393 PCS 39317.0
2016-02-04 84671900 JAI-0405 1/2" SUPER DUTY AIR IMPACT WRENCH (PNEUMATIC TOOLS) TAIWAN Chennai Sea 162 0.7441 PCS 4593.0
2016-02-04 84671900 JAI-0924 1/2" COMPOSITE IMPACT WRENCH (PNEUMATIC TOOLS) TAIWAN Chennai Sea 50 0.2694 PCS 5387.0
2016-02-04 84671900 JAI-6276L 1" SUPER DUTY IMPACT WRENCH W/6" ANVIL (PNEUMATIC TOOLS) TAIWAN Chennai Sea 15 0.3242 PCS 21613.0
2016-02-04 84678990 WF-002A 1/2" IMPACT WRENCH KIT(1PC/WUFU COLOR BOX) CHINA Chennai Sea 150 0.095 PCS 633.0
2016-02-04 84678990 WF-030 KIT 1" EXTENDED ANVIL, IMPACT WRENCH (SINGLE HAMMER)30&32MM SOCKETS (1KIT/BMC COLOR SLEEVE) (120 KITS) CHINA Chennai Sea 120 0.2619 SET 2182.0
2016-02-04 84678990 WF-032 KIT 1" EXTENDED ANVIL AIR IMPACT WRENCH (SINGLE HAMMER) (1PC/BMC COLOR BOX) (20 KITS) CHINA Chennai Sea 20 0.0502 SET 2509.0
2016-02-04 84678990 WFI-1070 1/2" IMPACT WRENCH ROCKING DOG CLUTCH (1PC/WUFU COLOR BOX) CHINA Chennai Sea 180 0.0513 PCS 285.0
2016-02-04 82041120 AT650 POWER TOOLS (1/2" COMPOSITE IMPACT WRENCH) (400 PCS) (S/# 15510401-15510800) (BRAND: BLUE POINT) (TO BE USED IN AU JAPAN Patparganj 900 1.346 KGS 1495.0
2016-02-05 84671900 1"EXTENDED ANVIL AIR IMPACT WRENCH AT-9981K CHINA Chennai Sea 1 0.0077 NOS 7655.0
2016-02-05 84671900 1/2 HEAY DUTY AIR IMPACT WRENCH CHINA Chennai Sea 5 0.0118 PCS 2353.0
2016-02-05 84671900 1/2 SUPER DUTY AIR IMPACT WRENCH AT-5040 R CHINA Chennai Sea 10 0.0208 PCS 2081.0
2016-02-05 84671900 15 PC,1/2" PROFESSIONAL AIR IMPACT WRENCH AT-241K CHINA Chennai Sea 10 0.0249 NOS 2494.0
2016-02-05 82041220 IW-4304HP - 1/2" IMPACT WRENCH (TWIN HAMMER) - AIR TOOLS, MAKE:- HAKKA TOOLS ENTERPRISE CO., LTD. TAIWAN Patparganj 24 0.1055 PCS 4395.0
2016-02-05 82041220 IW-8000S-8 - 1" IMPACT WRENCH W/8" ANVIL (ROCKING DOG) - AIR TOOLS, MAKE:- HAKKA TOOLS ENTER PRISE CO., LTD. TAIWAN Patparganj 2 0.0281 PCS 14040.0
2016-02-09 82041120 MG725 1/2IN AIR IMPACT WRENCH (TOOLS) UNITED STATES Delhi Air Cargo 15 0.1422 NOS 9477.0
2016-02-09 82041120 TA 45401S IMPACT WRENCH 1 45401 S TA 285B NETHERLANDS Chennai Sea 1 0.0742 NOS 74160.0
2016-02-09 82041120 TA TOKMI160H IMPACT WRENCH 1/2 TOKU TOKMI 160H NETHERLANDS Chennai Sea 1 0.0099 NOS 9928.0
2016-02-09 82079090 TDW-243E 1/2" AIR IMPACT WRENCH TAIWAN Bombay Air Cargo 5 0.0195 PCS 3894.0
2016-02-09 82079090 TDW-243N 1/2" AIR IMPACT WRENCH TAIWAN Bombay Air Cargo 5 0.0228 PCS 4568.0
2016-02-10 82041120 IMPACT WRENCH CP6500-RSR 1/2" RING T025216 TAIWAN Bombay Air Cargo 20 0.1721 PCS 8603.0
2016-02-10 82041120 IMPACT WRENCH CP6773 1" DUAL 6151590410 TAIWAN Bombay Air Cargo 5 0.062 PCS 12398.0
2016-02-10 82079090 OIL WELL SUPPLIES: (QTY: 1 NOS) WRENCH, AIR IMPACT 1 IN DRIVE SUPER HEAVY DUTY UNITED STATES Nhava Sheva Sea 10 0.2028 KGS 20283.0
2016-02-11 84671900 45587524 1/2 IMPACT WRENCH (PNEUMATIC TOOL) UNITED STATES Delhi Air Cargo 6 0.0399 PCS 6650.0
2016-02-12 84671190 FD5901K 1" AIR IMPACT WRENCH WITH KIT (PNEUMATIC TOOLS) CHINA Tughlakabad 168 1.9308 PCS 11492.0
2016-02-12 84671190 FD8888BK 1" AIR IMPACT WRENCH WITH KIT (PNEUMATIC TOOLS) CHINA Tughlakabad 84 1.0343 PCS 12313.0
2016-02-12 84672900 1/2" ELECTRIC IMPACT WRENCH (DW292-QS) ORIGIN-MEXICO MEXICO Nhava Sheva Sea 112 0.4759 UNT 4249.0
2016-02-12 84678990 1/2" HEAVY DUTY AIR IMPACT WRENCH(RT - AIR TOOLS & PARTS) TAIWAN Chennai Sea 40 0.1148 PCS 2869.0
2016-02-12 84678990 1/2" MINI AIR IMPACT WRENCH(RT - AIR TOOLS & PARTS) TAIWAN Chennai Sea 10 0.0317 PCS 3168.0
2016-02-12 82041120 IMPACT WRENCH 928 PC1 1/2"-TOOLS USED FOR SERVICING BIKES INWORKSHOP ITALY Nhava Sheva Sea 1 0.0113 UNT 11324.0
2016-02-15 82079090 OILWELL SUPPLIES (QTY:1 NOS) DRILL, CORDLESS XRP IMPACT WRENCH KIT 1/2 IN (13MM) 18V UNITED STATES Nhava Sheva Sea 5 0.0202 KGS 4031.0
2016-02-15 82079090 OILWELL SUPPLIES: (QTY: 1 NOS) WRENCH, CORDLESS IMPACT 18 VOLT UNITED STATES Nhava Sheva Sea 7 0.0231 KGS 3296.0
2016-02-17 84671900 1/2INCH SQUARE IMPACT WRENCH WITHOUT SOCKET (TSW-416P) JAPAN Chennai Sea 36 0.2039 NOS 5663.0
2016-02-17 84671900 1/2INCH SQUARE IMPACT WRENCH WITHOUT SOCKET (TSW-418P) JAPAN Chennai Sea 48 0.2773 NOS 5777.0
2016-02-17 82042000 071415133 Impact socket wrench 1 inch SKTWRNCHIMP-1IN-LONG-WS33 GERMANY Banglore Air Cargo 3 0.0026 PCS 868.0
2016-02-17 82079090 OILWELL SUPPLIES: (QTY: 1 NOS) WRENCH, CORDLESS IMPACT 18 VOLT UNITED STATES Nhava Sheva Sea 7 0.0231 KGS 3296.0
2016-02-19 82079090 OIL WELL SUPPLIES: (QTY: 1 NOS) WRENCH, AIR IMPACT 1 IN DRIVE SUPER HEAVY DUTY UNITED STATES Nhava Sheva Sea 10 0.2028 KGS 20283.0
2016-02-23 84672900 4933448100 M18CHIWF12-502 18V IMPACT WRENCH 1/2 FUEL (BRAND:MILWAUKEE)- TOOL CZECH REPUBLIC Nhava Sheva Sea 2 0.0459 PCS 22938.0
2016-02-23 82041220 IMPACT WRENCH - SI-1605 (QTY 1 PCS) JAPAN Bombay Air Cargo 2 0.0067 KGS 3330.0
2016-02-23 82042000 071413 081 IMPACT SOCKET WRENCH 1/2 INCH SKTWRNCHIMP-1/2IN-SHORT-WS18 GERMANY Banglore Air Cargo 1 1.0E-4 PCS 121.0
2016-02-24 84671900 I-40-1/2" AIR IMPACT WRENCH (ONE HAMMER) (MAKE:UNORESOURCING) (PNEUMATIC TOOLS FOR INDUSTRIAL USE ) TAIWAN Patparganj 30 0.0481 PCS 1603.0
2016-02-24 84671900 I-8083-1"HEAVY DUTY TWIN HAMMER MECHANISM AIR IMPACT WRENCH(MAKE:UNO RESOURCING)(PNEUMATIC TOOLS FOR INDUSTRIAL USE) TAIWAN Patparganj 6 0.1074 PCS 17905.0
2016-02-26 82042000 IMPACT SOCKET - TRUCK LUN NUT WRENCH 1 : 58A ( 20 PCS ) CHINA Nhava Sheva Sea 154 0.0246 KGS 160.0
2016-02-27 84671900 01390459 2190TI 1" TITANIUM IMPACT WRENCH (PNEUMATIC TOOL) UNITED STATES Delhi Air Cargo 4 0.1469 PCS 36733.0
2016-02-27 84671900 45587565 1/2 IMPACT WRENCH (PNEUMATIC TOOL) UNITED STATES Delhi Air Cargo 2 0.0142 PCS 7078.0
2016-02-29 84671900 SP-1140EX - 1/2 IMPACT WRENCH (PNEUMATIC TOOLS) JAPAN Chennai Sea 100 0.4599 PCS 4599.0
2016-02-29 84671900 SP-1193GE-6 - 1 IMPACT WRENCH PINLESS (PNEUMATIC TOOLS) JAPAN Chennai Sea 3 0.0474 PCS 15790.0
2016-02-29 84671900 SP-5000GE - 1 IMPACT WRENCH PINLESS (PNEUMATIC TOOLS) JAPAN Chennai Sea 10 0.2365 PCS 23645.0
2016-02-29 82041120 4 PCS MI-17HE 1/2" IMPACT WRENCH SINGAPORE Nhava Sheva Sea 12 0.0034 KGS 281.0
2016-03-02 84671900 JAI-0405 1/2" SUPER DUTY AIR IMPACT WRENCH TAIWAN Chennai Sea 204 0.9447 PCS 4631.0
2016-03-02 84678990 ST-5587L 1" AIR IMPACT WRENCH W/8" ANVIL (ROCKING DOG) FREESPEED:4,000RPM, MAX TORQUE:1,500 FT-LB TAIWAN Chennai Sea 125 0.3369 PCS 2694.0
2016-03-03 84678990 AT650 1/2" COMPOSITE IMPACT WRENCH (POWER TOOLS) JAPAN Delhi Air Cargo 100 0.3485 PCS 3485.0
2016-03-05 84671900 PNEUMATIC TOOLS - RY -236-8 1" IMPACT WRENCH TAIWAN Chennai Sea 61 0.0875 KGS 1434.0
2016-03-05 84672900 747204A049 3940A40 MOTOR HOUSING ASSY 1" DRIVE,IMPACT WRENCH MDL#231GXP (OILWELL DRILLING RIG SPARE) UNITED STATES Bombay Air Cargo 1 0.031 NOS 31048.0
2016-03-05 84314390 74722B2171 1712B2 WRENCH, IMPACT AIR 1" SQ DRIVE 450-1000' (OILWELL DRILLING RIG SPARE) UNITED STATES Bombay Air Cargo 2 0.2127 NOS 106326.0
2016-03-08 84671900 1 SUPER DUTY IMPACT WRENCH W/6 ANVIL(CE MARK)-JAI-6276L-PNEUMATIC TOOLS TAIWAN Chennai Air Cargo 15 0.3502 PCS 23347.0

1 Impact Wrenches Trade Data - Indian Ports

S. No Product Product Code Quantity Value (INR in Million) Unit Origin Port Destination Port
AIR IMPACT WRENCH 1/2" TWIN HAMMER SAT1710 (PNEUMATIC TOOLS) 84671190 50 0.1119 PCS CHINA Nhava Sheva Sea
WRENCH, IMPACT, PNEUMATIC, GENERAL DUTY, PISTOL GRIP STYLE,1/2" DRIVE, 25' - 225' LB TORQUE, MAX TORQUE 450' LB, AVERAG 84314990 1 0.0088 NOS UNITED STATES Chennai Sea
CORDL. IMPACT WRENCH SIW 22-A 1/2" CAS 84672900 2 0.0192 PCS GERMANY Bombay Air Cargo
AT123B 1/2" IMPACT WRENCH(500 PCS) (POWER TOOLS) 82041220 1500 1.8822 KGS CHINA Garhi Harsaru - Gurgaon ICD
AOP-310DB4 1/2" AIR IMPACT WRENCH (SINGLE RING TYPE) (PNEUMATIC TOOL) 84671900 5 0.0018 PCS TAIWAN Delhi Air Cargo
AOP-310LD4 1/2" AIR IMPACT WRENCH (SINGLE RING TYPE) (PNEUMATIC TOOL) 84671900 5 0.0018 PCS TAIWAN Delhi Air Cargo
GWI-A1079 1/1" MINI COMPOSITIC IMPACT WRENCH (PNEUMATIC TOOL) 84671900 15 0.004 PCS TAIWAN Delhi Air Cargo
1/2" ( 12.7MM) H.D. AIR IMPACT WRENCH PIN CLUTCH FRONT EXHAUST PLASTIC TRIGGER AVG AIR CONS : 3.5 CFM - FAW-P0040 84672900 3 0.016 PCS TAIWAN Bombay Air Cargo
CORDL. IMPACT WRENCH SIW 22-A 1/2" CAS 84672900 2 0.0192 PCS GERMANY Bombay Air Cargo
33451-05 1/2" DR STD AIR IMPACT WRENCH 450FT LBS[610 NM][20PCS][MADE OF MILS STEEL] 82041120 34 0.0228 KGS TAIWAN Nhava Sheva Sea
33862-200 1" DR EXT AIR IMPACT WRENCH 2000 FT LBS[2712 NM][4 PCS][MADE OF MILD STEEL] 82041120 33 0.0237 KGS TAIWAN Nhava Sheva Sea
44116MP 21PC 1/2: DR AIR IMPACT WRENCH SET METRIC WITH SOCKET [MADE OF MILD STEEL][8 SETS] 82041120 48 0.0083 KGS TAIWAN Nhava Sheva Sea
1/2" ELECTRIC IMPACT WRENCH (DW292-QS) 84672900 56 0.2417 UNT MEXICO Nhava Sheva Sea
1/2" COMPOSITE TWIN HAMMER HEAVY DUTY AIR IMPACT WRENCH - TI-5407 (AIR TOOLS ) 84678990 10 0.0533 PCS TAIWAN Delhi Air Cargo
1/2" COMPOSITE INDUSTRIAL TWIN HAMMER MECHANISM AIR IMPACT WRENCH - TI-5412 (AIR TOOLS ) 84678990 50 0.2089 PCS TAIWAN Delhi Air Cargo
STANLEY HYDRAULIC IMPACT WRENCH 1"DRIVE MODEL-IW16 (PART CODE IW16350) 82059090 1 0.41 NOS SINGAPORE Bombay Sea
1" AIR IMPACT WRENCH KIT PD-2001K 84678990 10 0.0124 SET CHINA Bombay Sea
1"AIR IMPACT WRENCH KIT PD-1001K 84678990 50 0.0517 SET CHINA Bombay Sea
1/2"AIR IMPACT WRENCH KIT PD-2012 HD 84678990 50 0.0189 SET CHINA Bombay Sea
AIR IMPACT WRENCH 1" (USED-TEMPORARY IMPORT ON RE -EXPORT BASIS FOR TESTING OF GAS TURBINE AT GSECL, UTRAN CCPP) 84679900 1 0.0477 PCS SWITZERLAND Bombay Air Cargo
AIR IMPACT WRENCH 1/2" (USED-TEMPORARY IMPORT ON RE -EXPORT BASIS FOR TESTING OF GAS TURBINE AT GSECL, UTRAN CCPP). 84679900 1 0.0076 PCS SWITZERLAND Bombay Air Cargo
AIR TOOLS - 1/2" AIR IMPACT WRENCH ( ROCKING DOG) 84671190 200 0.1055 PCS TAIWAN Nhava Sheva Sea
AIR TOOLS - 1/2" AIR IMPACT WRENCH ( TWIN HAMMER ) 84671190 8 0.0168 PCS TAIWAN Nhava Sheva Sea
AIR TOOLS - 1/2" HEAVY DUTY IMPACT WRENCH ( TWIN HAMMER ) 84671190 8 0.0125 PCS TAIWAN Nhava Sheva Sea
AIR TOOLS - 17PCS 1/2"AIR IMPACT WRENCH KIT - SOCKET SET : 9,10,11,13,14,17,19,22,24,27 (MM) 84671190 204 0.1596 SET TAIWAN Nhava Sheva Sea

Looking to import 1 Impact Wrenches?

With end to end global trade solutions from Connect2India, we enable Indian SMEs to start and grow their business globally

Yearwise analysis of 1 Impact Wrenches import to India

Below is the detailed list of 1 Impact Wrenches import to India with quantity, volume, price, origin port and the destination port.

Increase your 1 Impact Wrenches imports with steady access to working capital with our import financing solutions at Connect2India.

Looking to import 1 Impact Wrenches from genuine and best quality Indian suppliers?

Graphical representation for 1 Impact Wrenches import

1 Impact Wrenches - Recent import data

How connect2india can help you import 1 Impact Wrenches?

Connect2India can help you find 1 Impact Wrenches suppliers / exporters in more than 100 countries, arrange import orders for 1 Impact Wrenches, find the most effective market to import 1 Impact Wrenches, help you out with procedures and formalities required to import 1 Impact Wrenches in India and also assist you in 1 Impact Wrenches shipment and logistics. Our trade experts are always available for any help regarding the import of 1 Impact Wrenches and its products. If you want more information, please get in touch with our trade experts here

People Also Ask

Whom can I contact for more information on 1 Impact Wrenches import to India?

You can submit your requirement on Connect2India and our representative will get in touch with you with more information about 1 Impact Wrenches. Alternatively, you can call us @ +91-7876759999 or email us to info@connect2India.com

Which is the most popular Indian port for 1 Impact Wrenches import?

Nhava Sheva Sea is the most popular port for 1 Impact Wrenches import to India

What are the top three import shipments of 1 Impact Wrenches traded to India?

Following are the top three import shipments of 1 Impact Wrenches traded to India :

  • 7472836049 3940638 HANDLE CAP SCREW, 1" DRIVE, IMPACT WRENCH MDL#3942(OILWELL DRILLING RIG SPARE)
  • AT650 1/2" COMPOSITE IMPACT WRENCH (POWER TOOLS)
  • HAND OPERATED WRENCHES- RE-5268 1/2" AIR IMPACT WRENCH (2 NOS)